sensor_id;sensor_type;location;lat;lon;timestamp;temperature;humidity
37560;DHT22;23398;50.928;7.084;2022-10-16T00:00:34;17.40;86.60
37560;DHT22;23398;50.928;7.084;2022-10-16T00:03:00;17.40;86.60
37560;DHT22;23398;50.928;7.084;2022-10-16T00:05:27;17.40;86.50
37560;DHT22;23398;50.928;7.084;2022-10-16T00:07:52;17.70;86.70
37560;DHT22;23398;50.928;7.084;2022-10-16T00:10:18;17.50;86.50
37560;DHT22;23398;50.928;7.084;2022-10-16T00:12:43;17.40;86.30
37560;DHT22;23398;50.928;7.084;2022-10-16T00:15:09;17.50;86.30
37560;DHT22;23398;50.928;7.084;2022-10-16T00:17:35;17.50;86.20
37560;DHT22;23398;50.928;7.084;2022-10-16T00:20:00;17.50;86.10
37560;DHT22;23398;50.928;7.084;2022-10-16T00:22:26;17.50;86.00
37560;DHT22;23398;50.928;7.084;2022-10-16T00:24:52;17.50;86.00
37560;DHT22;23398;50.928;7.084;2022-10-16T00:27:17;17.50;85.90
37560;DHT22;23398;50.928;7.084;2022-10-16T00:29:43;17.50;85.80
37560;DHT22;23398;50.928;7.084;2022-10-16T00:32:09;17.50;85.70
37560;DHT22;23398;50.928;7.084;2022-10-16T00:34:34;17.50;85.50
37560;DHT22;23398;50.928;7.084;2022-10-16T00:37:00;17.50;85.50
37560;DHT22;23398;50.928;7.084;2022-10-16T00:39:26;17.40;85.40
37560;DHT22;23398;50.928;7.084;2022-10-16T00:41:51;17.40;85.50
37560;DHT22;23398;50.928;7.084;2022-10-16T00:44:52;17.40;85.50
37560;DHT22;23398;50.928;7.084;2022-10-16T00:47:22;17.40;85.70
37560;DHT22;23398;50.928;7.084;2022-10-16T00:49:53;17.30;85.40
37560;DHT22;23398;50.928;7.084;2022-10-16T00:52:20;17.30;85.40
37560;DHT22;23398;50.928;7.084;2022-10-16T00:54:47;17.30;85.50
37560;DHT22;23398;50.928;7.084;2022-10-16T00:57:14;17.30;85.50
37560;DHT22;23398;50.928;7.084;2022-10-16T00:59:41;17.30;85.60
37560;DHT22;23398;50.928;7.084;2022-10-16T01:02:10;17.20;85.40
37560;DHT22;23398;50.928;7.084;2022-10-16T01:04:53;17.20;85.60
37560;DHT22;23398;50.928;7.084;2022-10-16T01:10:27;17.20;85.80
37560;DHT22;23398;50.928;7.084;2022-10-16T01:13:11;17.20;86.10
37560;DHT22;23398;50.928;7.084;2022-10-16T01:15:48;17.20;86.10
37560;DHT22;23398;50.928;7.084;2022-10-16T01:18:34;17.20;86.00
37560;DHT22;23398;50.928;7.084;2022-10-16T01:21:10;17.20;86.10
37560;DHT22;23398;50.928;7.084;2022-10-16T01:31:33;17.10;86.00
37560;DHT22;23398;50.928;7.084;2022-10-16T01:34:08;17.10;85.80
37560;DHT22;23398;50.928;7.084;2022-10-16T01:36:41;17.30;86.20
37560;DHT22;23398;50.928;7.084;2022-10-16T01:39:10;17.00;85.90
37560;DHT22;23398;50.928;7.084;2022-10-16T01:41:43;17.40;86.40
37560;DHT22;23398;50.928;7.084;2022-10-16T01:44:15;17.60;86.80
37560;DHT22;23398;50.928;7.084;2022-10-16T01:46:46;17.00;86.10
37560;DHT22;23398;50.928;7.084;2022-10-16T01:49:13;16.90;86.10
37560;DHT22;23398;50.928;7.084;2022-10-16T01:51:39;16.90;86.10
37560;DHT22;23398;50.928;7.084;2022-10-16T01:54:07;16.90;86.00
37560;DHT22;23398;50.928;7.084;2022-10-16T01:56:34;17.20;86.40
37560;DHT22;23398;50.928;7.084;2022-10-16T01:59:10;17.20;86.40
37560;DHT22;23398;50.928;7.084;2022-10-16T02:01:40;16.80;86.20
37560;DHT22;23398;50.928;7.084;2022-10-16T02:04:29;16.80;86.10
37560;DHT22;23398;50.928;7.084;2022-10-16T02:06:56;16.70;86.50
37560;DHT22;23398;50.928;7.084;2022-10-16T02:09:22;16.70;86.20
37560;DHT22;23398;50.928;7.084;2022-10-16T02:11:48;16.60;86.30
37560;DHT22;23398;50.928;7.084;2022-10-16T02:14:15;16.60;86.40
37560;DHT22;23398;50.928;7.084;2022-10-16T02:16:44;16.60;86.50
37560;DHT22;23398;50.928;7.084;2022-10-16T02:19:11;17.00;87.20
37560;DHT22;23398;50.928;7.084;2022-10-16T02:21:50;16.60;87.00
37560;DHT22;23398;50.928;7.084;2022-10-16T02:29:55;16.60;87.80
37560;DHT22;23398;50.928;7.084;2022-10-16T02:32:28;16.60;88.00
37560;DHT22;23398;50.928;7.084;2022-10-16T02:34:56;16.80;88.30
37560;DHT22;23398;50.928;7.084;2022-10-16T02:37:23;16.70;88.10
37560;DHT22;23398;50.928;7.084;2022-10-16T02:39:50;16.60;88.00
37560;DHT22;23398;50.928;7.084;2022-10-16T02:42:18;16.70;88.10
37560;DHT22;23398;50.928;7.084;2022-10-16T02:44:44;16.70;88.10
37560;DHT22;23398;50.928;7.084;2022-10-16T02:47:09;16.80;88.20
37560;DHT22;23398;50.928;7.084;2022-10-16T02:49:35;16.80;88.20
37560;DHT22;23398;50.928;7.084;2022-10-16T02:52:00;16.90;88.20
37560;DHT22;23398;50.928;7.084;2022-10-16T02:54:26;16.80;88.00
37560;DHT22;23398;50.928;7.084;2022-10-16T02:56:51;16.80;88.00
37560;DHT22;23398;50.928;7.084;2022-10-16T02:59:17;17.50;88.60
37560;DHT22;23398;50.928;7.084;2022-10-16T03:01:42;16.90;87.90
37560;DHT22;23398;50.928;7.084;2022-10-16T03:04:08;16.90;87.80
37560;DHT22;23398;50.928;7.084;2022-10-16T03:06:34;16.90;87.70
37560;DHT22;23398;50.928;7.084;2022-10-16T03:09:00;17.00;87.70
37560;DHT22;23398;50.928;7.084;2022-10-16T03:11:25;17.00;87.60
37560;DHT22;23398;50.928;7.084;2022-10-16T03:13:51;17.00;87.60
37560;DHT22;23398;50.928;7.084;2022-10-16T03:16:17;17.20;87.70
37560;DHT22;23398;50.928;7.084;2022-10-16T03:18:42;17.70;88.00
37560;DHT22;23398;50.928;7.084;2022-10-16T03:21:08;17.00;87.10
37560;DHT22;23398;50.928;7.084;2022-10-16T03:23:33;17.00;86.90
37560;DHT22;23398;50.928;7.084;2022-10-16T03:25:59;17.00;86.80
37560;DHT22;23398;50.928;7.084;2022-10-16T03:28:25;17.00;86.90
37560;DHT22;23398;50.928;7.084;2022-10-16T03:30:50;16.90;86.90
37560;DHT22;23398;50.928;7.084;2022-10-16T03:33:16;16.90;86.90
37560;DHT22;23398;50.928;7.084;2022-10-16T03:35:41;17.40;87.50
37560;DHT22;23398;50.928;7.084;2022-10-16T03:38:07;16.90;87.10
37560;DHT22;23398;50.928;7.084;2022-10-16T03:40:32;16.90;87.10
37560;DHT22;23398;50.928;7.084;2022-10-16T03:42:58;16.90;87.10
37560;DHT22;23398;50.928;7.084;2022-10-16T03:45:24;16.90;87.20
37560;DHT22;23398;50.928;7.084;2022-10-16T03:47:50;17.50;87.80
37560;DHT22;23398;50.928;7.084;2022-10-16T03:50:16;17.00;87.50
37560;DHT22;23398;50.928;7.084;2022-10-16T03:52:41;16.90;87.30
37560;DHT22;23398;50.928;7.084;2022-10-16T03:55:07;17.00;87.50
37560;DHT22;23398;50.928;7.084;2022-10-16T03:57:33;16.90;87.30
37560;DHT22;23398;50.928;7.084;2022-10-16T03:59:58;16.90;87.40
37560;DHT22;23398;50.928;7.084;2022-10-16T04:02:24;17.10;87.60
37560;DHT22;23398;50.928;7.084;2022-10-16T04:04:49;16.90;87.40
37560;DHT22;23398;50.928;7.084;2022-10-16T04:07:15;16.90;87.50
37560;DHT22;23398;50.928;7.084;2022-10-16T04:09:41;17.00;87.60
37560;DHT22;23398;50.928;7.084;2022-10-16T04:12:07;16.90;87.60
37560;DHT22;23398;50.928;7.084;2022-10-16T04:14:32;16.90;87.60
37560;DHT22;23398;50.928;7.084;2022-10-16T04:16:58;16.90;87.60
37560;DHT22;23398;50.928;7.084;2022-10-16T04:19:24;16.90;87.60
37560;DHT22;23398;50.928;7.084;2022-10-16T04:21:49;16.90;87.60
37560;DHT22;23398;50.928;7.084;2022-10-16T04:24:15;16.90;87.60
37560;DHT22;23398;50.928;7.084;2022-10-16T04:26:40;16.90;87.60
37560;DHT22;23398;50.928;7.084;2022-10-16T04:29:06;17.40;88.10
37560;DHT22;23398;50.928;7.084;2022-10-16T04:31:32;16.90;88.20
37560;DHT22;23398;50.928;7.084;2022-10-16T04:33:58;17.00;87.60
37560;DHT22;23398;50.928;7.084;2022-10-16T04:36:24;17.00;87.50
37560;DHT22;23398;50.928;7.084;2022-10-16T04:38:49;17.40;87.90
37560;DHT22;23398;50.928;7.084;2022-10-16T04:41:15;17.00;87.40
37560;DHT22;23398;50.928;7.084;2022-10-16T04:43:40;17.00;87.30
37560;DHT22;23398;50.928;7.084;2022-10-16T04:46:06;17.00;87.20
37560;DHT22;23398;50.928;7.084;2022-10-16T04:48:32;17.00;87.10
37560;DHT22;23398;50.928;7.084;2022-10-16T04:50:57;17.10;87.10
37560;DHT22;23398;50.928;7.084;2022-10-16T04:53:23;17.00;87.70
37560;DHT22;23398;50.928;7.084;2022-10-16T04:55:49;17.00;86.80
37560;DHT22;23398;50.928;7.084;2022-10-16T04:58:15;17.00;86.90
37560;DHT22;23398;50.928;7.084;2022-10-16T05:00:41;17.00;86.80
37560;DHT22;23398;50.928;7.084;2022-10-16T05:03:06;17.00;86.80
37560;DHT22;23398;50.928;7.084;2022-10-16T05:05:34;17.00;86.70
37560;DHT22;23398;50.928;7.084;2022-10-16T05:08:00;17.00;86.60
37560;DHT22;23398;50.928;7.084;2022-10-16T05:10:26;16.90;86.50
37560;DHT22;23398;50.928;7.084;2022-10-16T05:12:51;16.90;86.60
37560;DHT22;23398;50.928;7.084;2022-10-16T05:15:17;16.90;86.60
37560;DHT22;23398;50.928;7.084;2022-10-16T05:17:43;16.80;86.60
37560;DHT22;23398;50.928;7.084;2022-10-16T05:20:09;16.90;86.80
37560;DHT22;23398;50.928;7.084;2022-10-16T05:22:34;16.90;86.80
37560;DHT22;23398;50.928;7.084;2022-10-16T05:25:00;16.80;86.70
37560;DHT22;23398;50.928;7.084;2022-10-16T05:27:26;17.00;86.90
37560;DHT22;23398;50.928;7.084;2022-10-16T05:29:51;16.80;86.50
37560;DHT22;23398;50.928;7.084;2022-10-16T05:32:17;16.90;86.40
37560;DHT22;23398;50.928;7.084;2022-10-16T05:34:43;16.90;86.40
37560;DHT22;23398;50.928;7.084;2022-10-16T05:37:09;16.80;86.40
37560;DHT22;23398;50.928;7.084;2022-10-16T05:39:36;16.80;86.30
37560;DHT22;23398;50.928;7.084;2022-10-16T05:42:02;17.10;86.30
37560;DHT22;23398;50.928;7.084;2022-10-16T05:44:28;16.80;85.60
37560;DHT22;23398;50.928;7.084;2022-10-16T05:46:53;16.80;85.80
37560;DHT22;23398;50.928;7.084;2022-10-16T05:49:19;16.70;85.80
37560;DHT22;23398;50.928;7.084;2022-10-16T05:51:44;16.70;86.60
37560;DHT22;23398;50.928;7.084;2022-10-16T05:54:10;17.10;86.30
37560;DHT22;23398;50.928;7.084;2022-10-16T05:56:36;16.90;85.90
37560;DHT22;23398;50.928;7.084;2022-10-16T05:59:03;16.60;85.50
37560;DHT22;23398;50.928;7.084;2022-10-16T06:01:29;16.60;85.30
37560;DHT22;23398;50.928;7.084;2022-10-16T06:03:56;16.50;84.70
37560;DHT22;23398;50.928;7.084;2022-10-16T06:06:24;16.40;84.20
37560;DHT22;23398;50.928;7.084;2022-10-16T06:08:52;16.40;83.90
37560;DHT22;23398;50.928;7.084;2022-10-16T06:11:23;16.30;83.70
37560;DHT22;23398;50.928;7.084;2022-10-16T06:13:50;16.30;84.10
37560;DHT22;23398;50.928;7.084;2022-10-16T06:16:16;16.10;84.00
37560;DHT22;23398;50.928;7.084;2022-10-16T06:18:41;16.10;84.10
37560;DHT22;23398;50.928;7.084;2022-10-16T06:21:16;16.10;84.90
37560;DHT22;23398;50.928;7.084;2022-10-16T06:23:42;16.00;85.60
37560;DHT22;23398;50.928;7.084;2022-10-16T06:26:09;16.20;86.10
37560;DHT22;23398;50.928;7.084;2022-10-16T06:28:35;15.90;85.80
37560;DHT22;23398;50.928;7.084;2022-10-16T06:31:02;16.20;85.70
37560;DHT22;23398;50.928;7.084;2022-10-16T06:33:28;15.90;85.60
37560;DHT22;23398;50.928;7.084;2022-10-16T06:35:53;15.80;86.30
37560;DHT22;23398;50.928;7.084;2022-10-16T06:38:19;15.80;86.50
37560;DHT22;23398;50.928;7.084;2022-10-16T06:40:44;15.80;86.80
37560;DHT22;23398;50.928;7.084;2022-10-16T06:43:10;16.40;86.70
37560;DHT22;23398;50.928;7.084;2022-10-16T06:45:35;16.00;87.00
37560;DHT22;23398;50.928;7.084;2022-10-16T06:48:01;15.90;87.80
37560;DHT22;23398;50.928;7.084;2022-10-16T06:50:26;16.00;88.60
37560;DHT22;23398;50.928;7.084;2022-10-16T06:52:52;16.10;89.30
37560;DHT22;23398;50.928;7.084;2022-10-16T06:55:17;16.20;89.80
37560;DHT22;23398;50.928;7.084;2022-10-16T06:57:43;16.40;90.10
37560;DHT22;23398;50.928;7.084;2022-10-16T07:00:09;16.50;90.30
37560;DHT22;23398;50.928;7.084;2022-10-16T07:02:35;16.60;90.40
37560;DHT22;23398;50.928;7.084;2022-10-16T07:05:00;16.80;90.50
37560;DHT22;23398;50.928;7.084;2022-10-16T07:07:26;16.90;90.50
37560;DHT22;23398;50.928;7.084;2022-10-16T07:09:52;17.10;90.50
37560;DHT22;23398;50.928;7.084;2022-10-16T07:12:18;17.20;90.30
37560;DHT22;23398;50.928;7.084;2022-10-16T07:14:43;17.50;90.20
37560;DHT22;23398;50.928;7.084;2022-10-16T07:17:09;17.60;90.00
37560;DHT22;23398;50.928;7.084;2022-10-16T07:19:34;17.70;89.60
37560;DHT22;23398;50.928;7.084;2022-10-16T07:22:00;17.80;89.40
37560;DHT22;23398;50.928;7.084;2022-10-16T07:24:26;18.00;89.30
37560;DHT22;23398;50.928;7.084;2022-10-16T07:26:51;18.20;89.50
37560;DHT22;23398;50.928;7.084;2022-10-16T07:29:19;18.40;89.10
37560;DHT22;23398;50.928;7.084;2022-10-16T07:31:45;18.50;88.20
37560;DHT22;23398;50.928;7.084;2022-10-16T07:34:13;18.70;87.50
37560;DHT22;23398;50.928;7.084;2022-10-16T07:36:39;19.40;87.40
37560;DHT22;23398;50.928;7.084;2022-10-16T07:39:04;19.00;86.40
37560;DHT22;23398;50.928;7.084;2022-10-16T07:41:30;19.20;86.10
37560;DHT22;23398;50.928;7.084;2022-10-16T07:43:58;19.20;85.80
37560;DHT22;23398;50.928;7.084;2022-10-16T07:46:26;19.30;85.60
37560;DHT22;23398;50.928;7.084;2022-10-16T07:48:52;19.40;85.50
37560;DHT22;23398;50.928;7.084;2022-10-16T07:51:20;19.60;85.50
37560;DHT22;23398;50.928;7.084;2022-10-16T07:53:46;19.80;85.60
37560;DHT22;23398;50.928;7.084;2022-10-16T07:56:12;20.00;85.80
37560;DHT22;23398;50.928;7.084;2022-10-16T07:58:38;20.80;86.40
37560;DHT22;23398;50.928;7.084;2022-10-16T08:01:06;20.60;84.70
37560;DHT22;23398;50.928;7.084;2022-10-16T08:03:33;20.90;82.90
37560;DHT22;23398;50.928;7.084;2022-10-16T08:05:59;21.10;81.40
37560;DHT22;23398;50.928;7.084;2022-10-16T08:08:26;21.40;81.40
37560;DHT22;23398;50.928;7.084;2022-10-16T08:10:52;21.60;81.90
37560;DHT22;23398;50.928;7.084;2022-10-16T08:13:17;22.00;82.00
37560;DHT22;23398;50.928;7.084;2022-10-16T08:15:43;22.50;81.40
37560;DHT22;23398;50.928;7.084;2022-10-16T08:18:11;23.00;80.90
37560;DHT22;23398;50.928;7.084;2022-10-16T08:20:37;23.70;80.00
37560;DHT22;23398;50.928;7.084;2022-10-16T08:23:03;24.40;78.80
37560;DHT22;23398;50.928;7.084;2022-10-16T08:25:29;25.20;77.60
37560;DHT22;23398;50.928;7.084;2022-10-16T08:27:55;26.00;74.60
37560;DHT22;23398;50.928;7.084;2022-10-16T08:30:22;26.80;73.20
37560;DHT22;23398;50.928;7.084;2022-10-16T08:32:49;27.70;71.60
37560;DHT22;23398;50.928;7.084;2022-10-16T08:35:15;28.50;68.60
37560;DHT22;23398;50.928;7.084;2022-10-16T08:37:41;29.40;66.50
37560;DHT22;23398;50.928;7.084;2022-10-16T08:45:42;32.10;59.70
37560;DHT22;23398;50.928;7.084;2022-10-16T08:50:43;33.70;56.50
37560;DHT22;23398;50.928;7.084;2022-10-16T08:53:16;34.40;55.00
37560;DHT22;23398;50.928;7.084;2022-10-16T08:55:53;35.20;53.20
37560;DHT22;23398;50.928;7.084;2022-10-16T08:58:20;36.00;52.20
37560;DHT22;23398;50.928;7.084;2022-10-16T09:00:49;36.60;50.60
37560;DHT22;23398;50.928;7.084;2022-10-16T09:22:41;41.60;41.60
37560;DHT22;23398;50.928;7.084;2022-10-16T09:25:16;41.90;38.60
37560;DHT22;23398;50.928;7.084;2022-10-16T09:27:45;42.10;38.30
37560;DHT22;23398;50.928;7.084;2022-10-16T09:30:17;42.30;37.20
37560;DHT22;23398;50.928;7.084;2022-10-16T09:32:44;42.40;36.40
37560;DHT22;23398;50.928;7.084;2022-10-16T09:35:18;42.50;35.80
37560;DHT22;23398;50.928;7.084;2022-10-16T09:37:45;42.60;35.10
37560;DHT22;23398;50.928;7.084;2022-10-16T09:40:13;42.60;34.60
37560;DHT22;23398;50.928;7.084;2022-10-16T09:42:39;42.70;33.80
37560;DHT22;23398;50.928;7.084;2022-10-16T09:45:05;42.60;33.50
37560;DHT22;23398;50.928;7.084;2022-10-16T09:47:32;42.70;33.60
37560;DHT22;23398;50.928;7.084;2022-10-16T09:50:13;42.60;33.30
37560;DHT22;23398;50.928;7.084;2022-10-16T09:52:44;42.60;33.20
37560;DHT22;23398;50.928;7.084;2022-10-16T09:55:15;42.60;33.10
37560;DHT22;23398;50.928;7.084;2022-10-16T09:57:53;42.40;33.10
37560;DHT22;23398;50.928;7.084;2022-10-16T10:00:21;42.10;33.10
37560;DHT22;23398;50.928;7.084;2022-10-16T10:02:47;41.90;33.00
37560;DHT22;23398;50.928;7.084;2022-10-16T10:05:25;41.50;32.00
37560;DHT22;23398;50.928;7.084;2022-10-16T10:07:59;40.90;33.00
37560;DHT22;23398;50.928;7.084;2022-10-16T10:10:30;40.40;32.80
37560;DHT22;23398;50.928;7.084;2022-10-16T10:12:56;39.70;32.50
37560;DHT22;23398;50.928;7.084;2022-10-16T10:15:22;39.00;32.60
37560;DHT22;23398;50.928;7.084;2022-10-16T10:17:54;38.30;33.30
37560;DHT22;23398;50.928;7.084;2022-10-16T10:20:29;37.50;34.00
37560;DHT22;23398;50.928;7.084;2022-10-16T10:22:56;36.70;34.30
37560;DHT22;23398;50.928;7.084;2022-10-16T10:25:43;36.00;34.50
37560;DHT22;23398;50.928;7.084;2022-10-16T10:28:34;35.20;35.80
37560;DHT22;23398;50.928;7.084;2022-10-16T10:34:22;33.60;36.60
37560;DHT22;23398;50.928;7.084;2022-10-16T10:37:04;32.70;37.80
37560;DHT22;23398;50.928;7.084;2022-10-16T10:39:43;32.00;39.60
37560;DHT22;23398;50.928;7.084;2022-10-16T10:42:24;31.40;39.80
37560;DHT22;23398;50.928;7.084;2022-10-16T10:47:54;30.40;41.50
37560;DHT22;23398;50.928;7.084;2022-10-16T10:50:43;30.00;42.70
37560;DHT22;23398;50.928;7.084;2022-10-16T11:01:26;29.10;44.30
37560;DHT22;23398;50.928;7.084;2022-10-16T11:06:34;28.90;44.20
37560;DHT22;23398;50.928;7.084;2022-10-16T11:11:59;28.50;44.30
37560;DHT22;23398;50.928;7.084;2022-10-16T11:14:35;28.30;45.00
37560;DHT22;23398;50.928;7.084;2022-10-16T11:17:39;28.20;45.10
37560;DHT22;23398;50.928;7.084;2022-10-16T11:20:20;27.90;46.00
37560;DHT22;23398;50.928;7.084;2022-10-16T11:22:56;27.80;45.90
37560;DHT22;23398;50.928;7.084;2022-10-16T11:25:26;27.60;46.10
37560;DHT22;23398;50.928;7.084;2022-10-16T11:28:00;27.40;46.00
37560;DHT22;23398;50.928;7.084;2022-10-16T11:30:29;27.30;46.10
37560;DHT22;23398;50.928;7.084;2022-10-16T11:35:40;27.10;46.10
37560;DHT22;23398;50.928;7.084;2022-10-16T11:38:26;27.10;46.70
37560;DHT22;23398;50.928;7.084;2022-10-16T11:40:56;27.00;46.80
37560;DHT22;23398;50.928;7.084;2022-10-16T11:46:40;26.80;47.30
37560;DHT22;23398;50.928;7.084;2022-10-16T11:49:21;26.80;47.30
37560;DHT22;23398;50.928;7.084;2022-10-16T11:51:59;26.70;47.10
37560;DHT22;23398;50.928;7.084;2022-10-16T11:55:02;26.70;46.90
37560;DHT22;23398;50.928;7.084;2022-10-16T11:57:51;26.60;47.40
37560;DHT22;23398;50.928;7.084;2022-10-16T12:00:24;26.60;47.30
37560;DHT22;23398;50.928;7.084;2022-10-16T12:08:30;26.70;48.70
37560;DHT22;23398;50.928;7.084;2022-10-16T12:11:22;26.90;48.60
37560;DHT22;23398;50.928;7.084;2022-10-16T12:13:49;27.00;48.10
37560;DHT22;23398;50.928;7.084;2022-10-16T12:18:44;27.30;48.10
37560;DHT22;23398;50.928;7.084;2022-10-16T12:21:11;27.40;48.00
37560;DHT22;23398;50.928;7.084;2022-10-16T12:23:49;27.50;47.50
37560;DHT22;23398;50.928;7.084;2022-10-16T12:26:27;27.60;47.70
37560;DHT22;23398;50.928;7.084;2022-10-16T12:28:54;27.90;47.50
37560;DHT22;23398;50.928;7.084;2022-10-16T12:31:20;27.80;47.40
37560;DHT22;23398;50.928;7.084;2022-10-16T12:34:03;27.90;47.40
37560;DHT22;23398;50.928;7.084;2022-10-16T12:36:32;28.00;46.70
37560;DHT22;23398;50.928;7.084;2022-10-16T12:38:58;27.90;46.10
37560;DHT22;23398;50.928;7.084;2022-10-16T12:41:30;28.00;46.20
37560;DHT22;23398;50.928;7.084;2022-10-16T12:43:57;28.00;45.80
37560;DHT22;23398;50.928;7.084;2022-10-16T12:46:24;28.00;46.00
37560;DHT22;23398;50.928;7.084;2022-10-16T12:51:40;27.90;45.60
37560;DHT22;23398;50.928;7.084;2022-10-16T12:59:40;27.70;45.20
37560;DHT22;23398;50.928;7.084;2022-10-16T13:05:02;27.50;46.10
37560;DHT22;23398;50.928;7.084;2022-10-16T13:11:00;27.10;46.00
37560;DHT22;23398;50.928;7.084;2022-10-16T13:21:30;26.80;46.80
37560;DHT22;23398;50.928;7.084;2022-10-16T13:24:12;26.80;47.00
37560;DHT22;23398;50.928;7.084;2022-10-16T13:29:14;26.60;47.00
37560;DHT22;23398;50.928;7.084;2022-10-16T13:31:40;26.60;47.30
37560;DHT22;23398;50.928;7.084;2022-10-16T13:34:14;26.50;47.30
37560;DHT22;23398;50.928;7.084;2022-10-16T13:36:50;26.40;47.70
37560;DHT22;23398;50.928;7.084;2022-10-16T13:39:30;26.30;47.90
37560;DHT22;23398;50.928;7.084;2022-10-16T13:42:16;26.20;48.30
37560;DHT22;23398;50.928;7.084;2022-10-16T13:44:46;26.10;48.60
37560;DHT22;23398;50.928;7.084;2022-10-16T13:47:18;26.20;48.70
37560;DHT22;23398;50.928;7.084;2022-10-16T13:49:44;26.10;48.90
37560;DHT22;23398;50.928;7.084;2022-10-16T13:52:20;26.10;49.10
37560;DHT22;23398;50.928;7.084;2022-10-16T13:54:46;26.20;49.20
37560;DHT22;23398;50.928;7.084;2022-10-16T13:57:14;26.10;49.80
37560;DHT22;23398;50.928;7.084;2022-10-16T13:59:40;26.10;49.80
37560;DHT22;23398;50.928;7.084;2022-10-16T14:02:32;26.00;50.20
37560;DHT22;23398;50.928;7.084;2022-10-16T14:05:01;25.90;50.40
37560;DHT22;23398;50.928;7.084;2022-10-16T14:07:30;25.70;51.10
37560;DHT22;23398;50.928;7.084;2022-10-16T14:10:07;25.70;51.00
37560;DHT22;23398;50.928;7.084;2022-10-16T14:12:43;25.80;50.90
37560;DHT22;23398;50.928;7.084;2022-10-16T14:15:17;25.80;50.50
37560;DHT22;23398;50.928;7.084;2022-10-16T14:17:48;25.80;50.60
37560;DHT22;23398;50.928;7.084;2022-10-16T14:20:16;25.80;50.50
37560;DHT22;23398;50.928;7.084;2022-10-16T14:22:42;25.80;50.50
37560;DHT22;23398;50.928;7.084;2022-10-16T14:30:26;25.70;50.70
37560;DHT22;23398;50.928;7.084;2022-10-16T14:32:57;25.70;50.80
37560;DHT22;23398;50.928;7.084;2022-10-16T14:35:37;25.60;51.00
37560;DHT22;23398;50.928;7.084;2022-10-16T14:38:05;25.60;51.20
37560;DHT22;23398;50.928;7.084;2022-10-16T14:40:33;25.50;51.20
37560;DHT22;23398;50.928;7.084;2022-10-16T14:43:01;25.50;51.50
37560;DHT22;23398;50.928;7.084;2022-10-16T14:45:30;25.40;51.70
37560;DHT22;23398;50.928;7.084;2022-10-16T14:48:06;25.30;52.50
37560;DHT22;23398;50.928;7.084;2022-10-16T14:50:39;25.30;52.10
37560;DHT22;23398;50.928;7.084;2022-10-16T14:53:11;25.30;52.40
37560;DHT22;23398;50.928;7.084;2022-10-16T14:55:38;25.10;52.70
37560;DHT22;23398;50.928;7.084;2022-10-16T14:58:04;25.10;53.00
37560;DHT22;23398;50.928;7.084;2022-10-16T15:00:30;25.10;53.20
37560;DHT22;23398;50.928;7.084;2022-10-16T15:02:55;25.00;53.30
37560;DHT22;23398;50.928;7.084;2022-10-16T15:05:22;24.90;53.50
37560;DHT22;23398;50.928;7.084;2022-10-16T15:07:49;24.90;53.70
37560;DHT22;23398;50.928;7.084;2022-10-16T15:10:18;24.80;54.00
37560;DHT22;23398;50.928;7.084;2022-10-16T15:12:45;24.70;54.10
37560;DHT22;23398;50.928;7.084;2022-10-16T15:17:55;24.60;54.60
37560;DHT22;23398;50.928;7.084;2022-10-16T15:20:29;24.60;54.80
37560;DHT22;23398;50.928;7.084;2022-10-16T15:22:56;24.50;54.90
37560;DHT22;23398;50.928;7.084;2022-10-16T15:27:53;24.40;55.40
37560;DHT22;23398;50.928;7.084;2022-10-16T15:30:18;24.30;56.20
37560;DHT22;23398;50.928;7.084;2022-10-16T15:32:44;24.30;55.80
37560;DHT22;23398;50.928;7.084;2022-10-16T15:35:09;24.20;55.90
37560;DHT22;23398;50.928;7.084;2022-10-16T15:37:35;24.10;56.20
37560;DHT22;23398;50.928;7.084;2022-10-16T15:40:00;24.00;56.40
37560;DHT22;23398;50.928;7.084;2022-10-16T15:42:26;23.90;56.60
37560;DHT22;23398;50.928;7.084;2022-10-16T15:44:52;23.90;56.80
37560;DHT22;23398;50.928;7.084;2022-10-16T15:47:17;23.90;57.00
37560;DHT22;23398;50.928;7.084;2022-10-16T15:49:42;23.70;57.20
37560;DHT22;23398;50.928;7.084;2022-10-16T15:52:08;23.60;57.40
37560;DHT22;23398;50.928;7.084;2022-10-16T15:54:33;23.60;57.70
37560;DHT22;23398;50.928;7.084;2022-10-16T15:56:59;23.60;58.00
37560;DHT22;23398;50.928;7.084;2022-10-16T15:59:25;23.50;58.20
37560;DHT22;23398;50.928;7.084;2022-10-16T16:01:50;23.40;58.40
37560;DHT22;23398;50.928;7.084;2022-10-16T16:04:16;23.30;58.60
37560;DHT22;23398;50.928;7.084;2022-10-16T16:06:42;23.30;58.70
37560;DHT22;23398;50.928;7.084;2022-10-16T16:09:11;23.30;59.00
37560;DHT22;23398;50.928;7.084;2022-10-16T16:11:36;23.20;59.00
37560;DHT22;23398;50.928;7.084;2022-10-16T16:14:04;23.10;59.20
37560;DHT22;23398;50.928;7.084;2022-10-16T16:16:30;23.10;59.50
37560;DHT22;23398;50.928;7.084;2022-10-16T16:18:57;23.00;59.60
37560;DHT22;23398;50.928;7.084;2022-10-16T16:21:22;23.00;59.90
37560;DHT22;23398;50.928;7.084;2022-10-16T16:23:48;22.90;60.00
37560;DHT22;23398;50.928;7.084;2022-10-16T16:26:18;22.90;60.20
37560;DHT22;23398;50.928;7.084;2022-10-16T16:28:49;22.80;60.40
37560;DHT22;23398;50.928;7.084;2022-10-16T16:31:14;22.70;60.60
37560;DHT22;23398;50.928;7.084;2022-10-16T16:33:40;22.70;60.90
37560;DHT22;23398;50.928;7.084;2022-10-16T16:36:06;22.90;61.40
37560;DHT22;23398;50.928;7.084;2022-10-16T16:38:32;22.60;61.40
37560;DHT22;23398;50.928;7.084;2022-10-16T16:40:58;22.50;61.50
37560;DHT22;23398;50.928;7.084;2022-10-16T16:43:25;22.40;61.60
37560;DHT22;23398;50.928;7.084;2022-10-16T16:45:52;22.50;61.90
37560;DHT22;23398;50.928;7.084;2022-10-16T16:48:17;22.30;61.90
37560;DHT22;23398;50.928;7.084;2022-10-16T16:50:43;22.30;62.30
37560;DHT22;23398;50.928;7.084;2022-10-16T16:53:09;22.50;62.70
37560;DHT22;23398;50.928;7.084;2022-10-16T16:55:34;22.20;62.60
37560;DHT22;23398;50.928;7.084;2022-10-16T16:58:00;22.20;62.90
37560;DHT22;23398;50.928;7.084;2022-10-16T17:00:26;22.10;62.90
37560;DHT22;23398;50.928;7.084;2022-10-16T17:02:51;22.00;63.00
37560;DHT22;23398;50.928;7.084;2022-10-16T17:05:18;22.70;64.00
37560;DHT22;23398;50.928;7.084;2022-10-16T17:07:43;22.00;63.60
37560;DHT22;23398;50.928;7.084;2022-10-16T17:10:09;22.00;64.00
37560;DHT22;23398;50.928;7.084;2022-10-16T17:12:35;21.90;64.10
37560;DHT22;23398;50.928;7.084;2022-10-16T17:15:01;21.90;64.40
37560;DHT22;23398;50.928;7.084;2022-10-16T17:17:27;21.90;64.50
37560;DHT22;23398;50.928;7.084;2022-10-16T17:19:52;21.90;64.80
37560;DHT22;23398;50.928;7.084;2022-10-16T17:22:19;21.80;65.00
37560;DHT22;23398;50.928;7.084;2022-10-16T17:24:48;21.80;65.10
37560;DHT22;23398;50.928;7.084;2022-10-16T17:27:15;22.50;66.40
37560;DHT22;23398;50.928;7.084;2022-10-16T17:29:41;21.80;65.30
37560;DHT22;23398;50.928;7.084;2022-10-16T17:32:06;21.70;65.50